Terminal Aerodrome Forecast
Issued by NWS

Current Version | Previous Version | Text Only | Print | Product List | Glossary Off
Versions: 1 2 3 4 5 6 7 8 9 10 11 12 13 14 15 16 17 18 19 20 21 22

000
FTUS41 KILN 031133
TAFLUK
TAF
KLUK 031133Z 0312/0412 00000KT 4SM BR FEW003 SCT250
     FM031400 VRB03KT P6SM SCT040
     FM031900 31005KT P6SM VCTS BKN035CB
     FM040100 VRB03KT P6SM SCT250
     FM040800 VRB02KT 4SM BR VCTS SCT040CB BKN130=

USA.gov is the U.S. government's official web portal to all federal, state and local government web resources and services.